Time;durP1;ratioP1;P1;durP2;ratioP2;P2;SDS_P1;SDS_P2;PMS_P1;PMS_P2;Temp;Humidity;BMP_temperature;BMP_pressure;BME280_temperature;BME280_humidity;BME280_pressure;Samples;Min_cycle;Max_cycle;Signal;HPM_P1;HPM_P2
2021/05/14 06:40:30;;;;;;;10.80;6.22;;;;;;;14.76;74.99;96835.62;1840096;76;22716;-61
2021/05/14 06:43:00;;;;;;;7.62;5.20;;;;;;;14.85;74.69;96838.94;1815593;79;21016;-60
2021/05/14 06:45:27;;;;;;;6.45;4.92;;;;;;;14.95;73.91;96845.97;1816463;79;20953;-62
2021/05/14 06:48:06;;;;;;;8.70;5.50;;;;;;;15.03;73.76;96840.97;1805705;77;20917;-62
2021/05/14 06:50:35;;;;;;;5.53;4.83;;;;;;;15.13;73.56;96841.02;1755824;80;20882;-61
2021/05/14 06:53:03;;;;;;;6.20;4.80;;;;;;;15.23;73.14;96844.56;1785207;80;21017;-62
2021/05/14 06:55:30;;;;;;;6.92;4.90;;;;;;;15.32;72.54;96841.69;1795114;77;20949;-61
2021/05/14 06:57:59;;;;;;;6.55;5.00;;;;;;;15.42;71.94;96841.17;1805624;78;21658;-62
2021/05/14 07:00:34;;;;;;;8.10;4.65;;;;;;;15.45;71.58;96843.97;1792773;79;20855;-64
2021/05/14 07:03:01;;;;;;;7.72;4.33;;;;;;;15.52;71.44;96844.14;1810356;77;20922;-65
2021/05/14 07:05:28;;;;;;;10.48;4.50;;;;;;;15.65;71.14;96840.79;1746796;82;21585;-63
2021/05/14 07:07:56;;;;;;;7.10;4.47;;;;;;;15.77;70.96;96842.60;1765835;81;20917;-61
2021/05/14 07:10:24;;;;;;;5.03;4.22;;;;;;;15.87;70.90;96841.52;1765569;81;21278;-63
2021/05/14 07:15:48;;;;;;;6.65;3.98;;;;;;;16.04;69.93;96848.45;1802030;79;21043;-63
2021/05/14 07:18:15;;;;;;;6.12;4.22;;;;;;;16.12;69.03;96843.39;1783216;80;21578;-62
2021/05/14 07:20:45;;;;;;;5.35;3.60;;;;;;;16.11;68.60;96842.61;1794404;79;21072;-60
2021/05/14 07:23:14;;;;;;;6.55;3.75;;;;;;;16.11;68.42;96842.61;1801660;79;20977;-61
2021/05/14 07:25:41;;;;;;;6.08;3.77;;;;;;;16.10;67.86;96843.76;1783594;80;21003;-62
2021/05/14 07:28:08;;;;;;;5.75;3.85;;;;;;;16.08;68.26;96836.58;1804695;79;21092;-63
2021/05/14 07:30:35;;;;;;;5.08;4.00;;;;;;;16.07;68.03;96837.70;1806250;79;21035;-62
2021/05/14 07:33:05;;;;;;;5.87;3.72;;;;;;;16.16;68.97;96842.34;1805106;77;21103;-62
2021/05/14 07:35:37;;;;;;;7.92;3.70;;;;;;;16.33;68.70;96841.14;1813437;79;21055;-62
2021/05/14 07:38:04;;;;;;;4.70;3.12;;;;;;;16.54;68.71;96851.07;1813312;79;20909;-61
2021/05/14 07:40:32;;;;;;;5.80;2.67;;;;;;;16.72;67.25;96850.09;1801461;79;20986;-61
2021/05/14 07:42:59;;;;;;;3.52;2.70;;;;;;;16.84;65.39;96845.29;1806639;77;21421;-62
2021/05/14 07:45:27;;;;;;;3.62;2.90;;;;;;;16.98;64.78;96845.55;1796953;79;21520;-61
2021/05/14 07:47:55;;;;;;;3.65;3.00;;;;;;;17.07;62.94;96854.81;1796795;79;21033;-62
2021/05/14 07:50:23;;;;;;;4.55;2.83;;;;;;;17.05;62.96;96854.39;1805254;77;21077;-63
2021/05/14 07:53:09;;;;;;;5.87;2.80;;;;;;;16.99;63.58;96859.87;1718613;81;21201;-63
2021/05/14 07:55:36;;;;;;;3.62;2.70;;;;;;;16.95;64.15;96857.67;1706104;83;21131;-62
2021/05/14 07:58:03;;;;;;;4.55;2.47;;;;;;;16.88;63.46;96865.66;1703829;83;21079;-62
2021/05/14 08:00:30;;;;;;;3.80;2.65;;;;;;;16.84;63.60;96858.05;1693541;84;21143;-63
2021/05/14 08:02:57;;;;;;;4.28;3.02;;;;;;;16.89;63.87;96858.53;1701432;83;21092;-62
2021/05/14 08:05:26;;;;;;;4.55;3.33;;;;;;;17.02;63.94;96859.16;1695310;83;21097;-61
2021/05/14 08:08:09;;;;;;;3.77;2.90;;;;;;;17.13;63.90;96856.06;1715949;83;21503;-61
2021/05/14 08:10:36;;;;;;;4.42;2.47;;;;;;;17.25;63.53;96857.82;1722816;81;20928;-64
2021/05/14 08:13:21;;;;;;;4.33;2.53;;;;;;;17.35;62.52;96857.23;1753535;81;21019;-64
2021/05/14 08:15:48;;;;;;;3.30;2.25;;;;;;;17.44;62.03;96856.41;1752571;81;21051;-63
2021/05/14 08:18:19;;;;;;;3.20;2.17;;;;;;;17.53;60.85;96857.77;1749419;81;21202;-65
2021/05/14 08:20:46;;;;;;;9.30;1.98;;;;;;;17.60;60.67;96852.47;1740607;81;21067;-66
2021/05/14 08:23:17;;;;;;;3.87;2.15;;;;;;;17.82;61.50;96852.80;1752047;81;21608;-63
2021/05/14 08:25:49;;;;;;;5.47;2.52;;;;;;;18.03;59.39;96851.77;1747938;81;21500;-65
2021/05/14 08:28:16;;;;;;;7.30;2.50;;;;;;;18.17;58.72;96857.38;1738887;81;21146;-66
2021/05/14 08:30:46;;;;;;;6.62;2.70;;;;;;;18.34;58.67;96854.14;1713071;81;21107;-68
2021/05/14 08:33:14;;;;;;;10.13;2.15;;;;;;;18.49;58.22;96847.01;1699871;83;21159;-65
2021/05/14 08:35:41;;;;;;;2.37;1.40;;;;;;;18.58;57.77;96859.13;1722482;83;21224;-69
2021/05/14 08:38:09;;;;;;;2.33;1.52;;;;;;;18.60;56.07;96858.75;1711357;82;21063;-69
2021/05/14 08:40:40;;;;;;;1.80;1.55;;;;;;;18.61;55.68;96856.23;1712817;82;21120;-63
2021/05/14 08:43:08;;;;;;;3.10;1.70;;;;;;;18.59;55.35;96856.61;1698228;83;21103;-67
2021/05/14 08:45:36;;;;;;;2.30;1.70;;;;;;;18.57;55.64;96860.27;1710601;82;21112;-65
2021/05/14 08:48:11;;;;;;;3.60;1.90;;;;;;;18.56;56.02;96864.72;1710535;83;21032;-66
2021/05/14 08:50:37;;;;;;;4.28;2.02;;;;;;;18.55;56.14;96854.44;1711827;82;21066;-65
2021/05/14 08:53:04;;;;;;;2.62;2.22;;;;;;;18.61;56.31;96850.81;1724358;82;20945;-70
2021/05/14 08:55:31;;;;;;;3.08;1.90;;;;;;;18.66;56.33;96849.92;1729994;82;21009;-64
2021/05/14 08:57:58;;;;;;;2.83;2.17;;;;;;;18.74;56.45;96851.58;1742070;82;21089;-65
2021/05/14 09:00:26;;;;;;;3.35;2.05;;;;;;;18.79;56.25;96847.75;1733175;82;21033;-63
2021/05/14 09:02:54;;;;;;;4.47;1.90;;;;;;;18.88;56.07;96847.67;1730688;82;21144;-65
2021/05/14 09:05:32;;;;;;;2.22;1.45;;;;;;;19.02;54.74;96847.82;1733435;82;21219;-65
2021/05/14 09:08:01;;;;;;;1.67;1.30;;;;;;;19.25;53.49;96844.94;1728077;82;21087;-63
2021/05/14 09:10:31;;;;;;;1.92;1.60;;;;;;;19.44;53.14;96845.33;1731154;82;20941;-63
2021/05/14 09:12:58;;;;;;;2.70;1.15;;;;;;;19.58;52.18;96846.81;1732419;82;20996;-64
2021/05/14 09:15:30;;;;;;;5.75;1.32;;;;;;;19.62;51.15;96846.25;1731472;82;21004;-62
2021/05/14 09:18:19;;;;;;;3.87;1.90;;;;;;;19.62;51.04;96854.40;1731146;82;21052;-63
2021/05/14 09:20:53;;;;;;;3.50;1.90;;;;;;;19.59;51.13;96855.17;1667816;83;21644;-63
2021/05/14 09:23:31;;;;;;;2.90;1.75;;;;;;;19.50;52.18;96858.19;1714032;82;20953;-62
2021/05/14 09:26:13;;;;;;;4.50;1.85;;;;;;;19.44;52.72;96865.12;1665147;85;21065;-61
2021/05/14 09:28:47;;;;;;;4.72;2.12;;;;;;;19.46;54.01;96864.73;1661107;86;21059;-62
2021/05/14 09:31:21;;;;;;;7.83;2.90;;;;;;;19.52;53.49;96859.97;1661560;86;20981;-62
2021/05/14 09:33:59;;;;;;;6.00;2.50;;;;;;;19.54;53.32;96866.38;1667835;85;21020;-62
2021/05/14 09:36:30;;;;;;;5.12;2.05;;;;;;;19.43;53.12;96865.51;1681070;85;21126;-63
2021/05/14 09:39:12;;;;;;;3.25;2.08;;;;;;;19.30;53.79;96862.25;1730780;82;20984;-63
2021/05/14 09:41:50;;;;;;;2.27;1.42;;;;;;;19.29;53.95;96862.63;1667504;85;21093;-62
2021/05/14 09:44:20;;;;;;;5.87;1.92;;;;;;;19.36;52.67;96862.73;1664128;85;21145;-63
2021/05/14 09:46:57;;;;;;;5.50;1.90;;;;;;;19.47;52.17;96860.87;1659983;86;20992;-62
2021/05/14 09:49:25;;;;;;;3.15;1.25;;;;;;;19.62;52.90;96857.91;1660063;86;21048;-61
2021/05/14 09:51:57;;;;;;;1.57;1.00;;;;;;;19.86;50.86;96861.19;1660265;85;21634;-61
2021/05/14 09:54:40;;;;;;;2.95;0.85;;;;;;;20.01;47.93;96860.92;1660534;86;21074;-63
2021/05/14 10:00:04;;;;;;;2.33;0.72;;;;;;;20.06;45.92;96857.86;1660896;85;21008;-63
2021/05/14 10:02:39;;;;;;;3.85;0.80;;;;;;;20.15;46.68;96855.58;1661609;86;28087;-64
2021/05/14 10:05:14;;;;;;;4.55;0.65;;;;;;;20.30;44.33;96859.95;1665804;85;20976;-63
2021/05/14 10:07:42;;;;;;;1.25;0.60;;;;;;;20.39;44.23;96857.70;1679080;83;21487;-63
2021/05/14 10:10:11;;;;;;;4.60;1.05;;;;;;;20.43;44.32;96851.69;1662923;85;21547;-63
2021/05/14 10:12:40;;;;;;;2.50;0.60;;;;;;;20.51;44.11;96855.80;1672781;85;21001;-64
2021/05/14 10:15:09;;;;;;;2.75;0.78;;;;;;;20.49;42.85;96853.45;1689604;85;21020;-63
2021/05/14 10:17:39;;;;;;;6.05;0.60;;;;;;;20.49;42.87;96855.41;1689785;85;21623;-63
2021/05/14 10:20:14;;;;;;;2.30;0.60;;;;;;;20.53;44.08;96842.59;1704709;83;21586;-64
2021/05/14 10:22:41;;;;;;;2.62;0.60;;;;;;;20.66;41.95;96847.31;1721389;82;20932;-63
2021/05/14 10:25:12;;;;;;;4.00;0.95;;;;;;;20.68;42.67;96848.31;1721580;83;20978;-61
2021/05/14 10:27:46;;;;;;;2.25;0.65;;;;;;;20.69;42.93;96844.41;1718474;83;20990;-64
2021/05/14 10:30:14;;;;;;;2.10;0.90;;;;;;;20.78;44.71;96831.22;1698833;83;21046;-63
2021/05/14 10:32:49;;;;;;;1.75;0.90;;;;;;;20.91;42.77;96843.34;1689691;85;21009;-63
2021/05/14 10:35:19;;;;;;;2.55;0.90;;;;;;;20.86;43.94;96840.98;1689651;85;20929;-62
2021/05/14 10:38:09;;;;;;;4.12;1.20;;;;;;;20.89;44.57;96838.86;1686182;83;21164;-63
2021/05/14 10:40:46;;;;;;;4.03;1.12;;;;;;;20.95;44.03;96840.81;1681722;83;21577;-63
2021/05/14 10:43:19;;;;;;;2.15;0.85;;;;;;;21.00;43.16;96847.83;1720210;83;20890;-63
2021/05/14 10:45:49;;;;;;;3.52;0.85;;;;;;;20.98;44.17;96846.08;1720316;83;21064;-63
2021/05/14 10:48:19;;;;;;;1.20;0.70;;;;;;;20.96;42.67;96851.13;1720163;83;21012;-63
2021/05/14 10:51:00;;;;;;;3.17;0.70;;;;;;;21.00;42.24;96848.61;1720144;83;21422;-64
2021/05/14 10:53:42;;;;;;;1.70;0.60;;;;;;;21.09;42.88;96845.54;1729851;82;21000;-64
2021/05/14 10:56:21;;;;;;;0.90;0.53;;;;;;;21.11;42.55;96843.99;1728400;80;21388;-64
2021/05/14 10:59:06;;;;;;;1.90;0.42;;;;;;;21.10;41.54;96834.25;1744925;82;21309;-64
2021/05/14 11:01:43;;;;;;;1.45;0.50;;;;;;;21.15;41.34;96843.23;1743649;80;20987;-65
2021/05/14 11:04:17;;;;;;;2.15;0.50;;;;;;;21.12;41.41;96837.97;1733546;80;20899;-63
2021/05/14 11:06:50;;;;;;;1.55;0.70;;;;;;;21.02;41.42;96837.33;1724825;82;21496;-65
2021/05/14 11:09:18;;;;;;;1.82;0.50;;;;;;;20.91;40.31;96835.17;1747319;80;20995;-62
2021/05/14 11:12:05;;;;;;;1.67;0.65;;;;;;;20.73;41.28;96846.55;1744265;80;20983;-62
2021/05/14 11:14:56;;;;;;;3.35;0.82;;;;;;;20.56;41.97;96850.77;1725408;82;20921;-63
2021/05/14 11:17:23;;;;;;;2.58;0.90;;;;;;;20.41;43.29;96841.78;1730259;80;20903;-62
2021/05/14 11:19:54;;;;;;;4.28;0.90;;;;;;;20.40;42.59;96841.56;1707239;82;21456;-63
2021/05/14 11:22:37;;;;;;;4.72;1.10;;;;;;;20.35;42.91;96839.20;1742922;80;21410;-63
2021/05/14 11:25:17;;;;;;;3.40;1.00;;;;;;;20.33;43.28;96841.53;1723892;82;21037;-63
2021/05/14 11:27:52;;;;;;;9.03;1.15;;;;;;;20.31;42.97;96832.98;1746544;80;20961;-63
2021/05/14 11:30:21;;;;;;;4.67;1.17;;;;;;;20.36;42.75;96833.20;1747363;80;20957;-63
2021/05/14 11:32:54;;;;;;;4.12;1.02;;;;;;;20.36;42.58;96833.20;1741399;80;21099;-60
2021/05/14 11:35:24;;;;;;;7.15;1.30;;;;;;;20.32;43.33;96825.03;1706061;82;21557;-63
2021/05/14 11:37:56;;;;;;;5.35;1.07;;;;;;;20.36;43.94;96830.47;1732190;82;21604;-62
2021/05/14 11:40:34;;;;;;;3.52;1.07;;;;;;;20.35;44.26;96828.33;1731896;82;21087;-63
2021/05/14 11:43:06;;;;;;;4.55;1.40;;;;;;;20.35;44.87;96831.63;1741010;80;20965;-63
2021/05/14 11:45:42;;;;;;;5.37;1.37;;;;;;;20.34;45.75;96830.08;1747558;82;20946;-61
2021/05/14 11:48:18;;;;;;;3.92;1.37;;;;;;;20.32;45.71;96831.83;1741414;82;21088;-62
2021/05/14 11:50:49;;;;;;;5.42;1.40;;;;;;;20.27;45.94;96832.19;1733847;80;21037;-62
2021/05/14 11:53:19;;;;;;;2.33;1.10;;;;;;;20.23;46.69;96830.01;1726665;82;20996;-62
2021/05/14 11:55:49;;;;;;;1.60;0.82;;;;;;;20.18;46.58;96822.20;1720309;83;21446;-63
2021/05/14 11:58:16;;;;;;;4.95;1.10;;;;;;;20.31;45.75;96830.83;1728058;80;21047;-62
2021/05/14 12:00:46;;;;;;;2.17;0.90;;;;;;;20.56;44.91;96825.52;1774660;80;20908;-63
2021/05/14 12:03:17;;;;;;;4.20;0.98;;;;;;;20.92;44.05;96820.38;1768384;80;21022;-62
2021/05/14 12:05:47;;;;;;;6.75;1.20;;;;;;;21.16;43.47;96818.33;1742109;82;20906;-62
2021/05/14 12:08:27;;;;;;;2.80;0.70;;;;;;;21.31;43.13;96814.47;1742245;82;20874;-62
2021/05/14 12:11:03;;;;;;;1.22;0.68;;;;;;;21.44;41.83;96812.91;1742182;82;21002;-65
2021/05/14 12:13:37;;;;;;;0.80;0.40;;;;;;;21.66;41.84;96811.75;1742226;82;21519;-69
2021/05/14 12:16:06;;;;;;;1.25;0.50;;;;;;;21.79;40.98;96803.94;1698337;83;21020;-65
2021/05/14 12:18:35;;;;;;;1.77;0.70;;;;;;;21.90;41.14;96809.42;1720227;83;20892;-62
2021/05/14 12:21:06;;;;;;;1.65;0.62;;;;;;;22.02;40.79;96811.74;1720129;83;21001;-63
2021/05/14 12:23:33;;;;;;;0.75;0.50;;;;;;;22.11;40.77;96810.16;1720311;83;20886;-62
2021/05/14 12:26:02;;;;;;;1.35;0.50;;;;;;;22.25;40.55;96811.49;1720302;83;20941;-69
2021/05/14 12:28:47;;;;;;;1.02;0.50;;;;;;;22.38;40.46;96796.24;1720403;83;21562;-66
2021/05/14 12:31:25;;;;;;;1.98;0.60;;;;;;;22.62;40.31;96801.44;1720492;83;20956;-65
2021/05/14 12:34:01;;;;;;;3.33;0.70;;;;;;;22.89;39.15;96801.09;1723018;81;20921;-65
2021/05/14 12:36:34;;;;;;;3.95;0.57;;;;;;;23.09;38.64;96806.26;1753195;80;21544;-70
2021/05/14 12:39:15;;;;;;;1.87;0.50;;;;;;;23.28;38.70;96793.25;1753822;81;20940;-66
2021/05/14 12:42:01;;;;;;;3.40;0.90;;;;;;;23.57;38.04;96800.09;1753644;81;21068;-66
2021/05/14 12:44:35;;;;;;;2.72;0.90;;;;;;;23.83;37.52;96806.90;1752557;81;21694;-64
2021/05/14 12:47:12;;;;;;;1.80;0.70;;;;;;;23.62;37.26;96805.89;1752695;81;21130;-66
2021/05/14 12:50:00;;;;;;;2.45;0.82;;;;;;;23.49;38.34;96804.05;1753766;80;21525;-65
2021/05/14 12:52:30;;;;;;;1.20;0.70;;;;;;;23.48;38.22;96806.61;1753879;80;21074;-65
2021/05/14 12:55:15;;;;;;;3.77;0.95;;;;;;;23.54;37.83;96802.26;1756184;81;21133;-68
2021/05/14 12:57:58;;;;;;;2.15;0.70;;;;;;;23.63;37.68;96793.00;1755140;81;21549;-70
2021/05/14 13:00:35;;;;;;;2.27;0.82;;;;;;;23.87;36.52;96816.63;1755197;81;21059;-68
2021/05/14 13:03:06;;;;;;;1.92;0.70;;;;;;;24.00;36.30;96798.52;1755152;81;21142;-68
2021/05/14 13:05:47;;;;;;;3.35;0.85;;;;;;;24.14;35.94;96807.97;1755080;81;20999;-63
2021/05/14 13:08:19;;;;;;;2.65;0.78;;;;;;;24.30;36.40;96805.48;1754957;81;21144;-63
2021/05/14 13:10:56;;;;;;;1.45;0.62;;;;;;;24.19;36.20;96814.37;1755765;81;21015;-70
2021/05/14 13:13:24;;;;;;;2.25;0.93;;;;;;;23.93;35.97;96806.78;1756513;81;21003;-67
